Terminal Aerodrome Forecast
Issued by NWS Pendleton, OR

Home | Current Version | Previous Version | Text Only | Print | Product List | Glossary On
Versions: 1 2 3 4 5 6 7 8 9 10 11 12 13 14 15 16 17 18 19 20 21 22 23 24 25 26 27 28 29 30 31 32 33 34 35
000
FTUS46 KPDT 292100 AAA
TAFPDT
TAF AMD
KPDT 292147Z 2922/3018 VRB03KT P6SM OVC009
     FM300300 VRB03KT 5SM BR BKN008 OVC015
     FM301100 12003KT 3SM BR SCT003 OVC007
     FM301400 10003KT 1SM BR OVC004=

USA.gov is the U.S. government's official web portal to all federal, state and local government web resources and services.